INS weather

Creech Air Force Base
Indian Springs, Nevada, United States

Public forecast

Using degrees Fahrenheit for public forecast. Weather courtesy of forecast.io.

METAR (pilot weather report)

Retrieved 2019/03/25 12:58 UTC (28 minutes ago):

KINS 251258Z 00000KT 10SM CLR 05/M03 A3018 RMK AO2A SLP201 T00491034 $

TAF (pilot weather forecast)

Forecast is more than 6 hours old.

Retrieved 2019/03/25 06:03 UTC (7 hours ago):

TAF TAF KINS 250559Z 2506/2612 VRB06KT 9999 FEW250 QNH3018INS BECMG 2517/2518 10009KT 9999 SKC QNH3007INS BECMG 2521/2522 13012G20KT 9999 SKC QNH3002INS BECMG 2602/2603 VRB06KT 9999 SKC QNH3001INS TX22/2523Z TN04/2513Z